Kocevje, Slovenia
Current Conditions -  °F | °C
As of 7:00 AM on Thursday 23 Oct 2014 (Local Time) from LDRI Reporting Station
Overcast Overcast  
Wind Chill: 52°   Ceiling: 4000
Heat Index: 52°   Visibility: 6mi
Dew Point: 45°   Wind: 8mph
Humidity: 76%   Direction: 330°NNW
Pressure: 29.74"   Gusts: NA
Location:  45.65°N, 14.86°E
Report Text: LDRI 230600Z 33007KT 290V360 9999 FEW033 OVC040 11/07 Q1007
Loading
Personal Weather Stations






























Interactive Weather Map
Tropical Storm Tracking
New forecast layout! Learn more

10-Day Weather Forecast

Advertisements
Track Severe Weather on mobile